sensor_id;sensor_type;location;lat;lon;timestamp;temperature;humidity
4727;DHT22;2377;51.734;8.950;2023-01-13T00:00:13;9.50;99.90
4727;DHT22;2377;51.734;8.950;2023-01-13T00:02:41;9.50;99.90
4727;DHT22;2377;51.734;8.950;2023-01-13T00:05:08;9.50;99.90
4727;DHT22;2377;51.734;8.950;2023-01-13T00:07:36;9.50;99.90
4727;DHT22;2377;51.734;8.950;2023-01-13T00:10:06;9.50;99.90
4727;DHT22;2377;51.734;8.950;2023-01-13T00:12:38;9.50;99.90
4727;DHT22;2377;51.734;8.950;2023-01-13T00:15:08;9.50;99.90
4727;DHT22;2377;51.734;8.950;2023-01-13T00:17:36;9.50;99.90
4727;DHT22;2377;51.734;8.950;2023-01-13T00:20:05;9.50;99.90
4727;DHT22;2377;51.734;8.950;2023-01-13T00:22:33;9.50;99.90
4727;DHT22;2377;51.734;8.950;2023-01-13T00:25:00;9.50;99.90
4727;DHT22;2377;51.734;8.950;2023-01-13T00:27:29;9.50;99.90
4727;DHT22;2377;51.734;8.950;2023-01-13T00:29:57;9.50;99.90
4727;DHT22;2377;51.734;8.950;2023-01-13T00:32:25;9.60;99.90
4727;DHT22;2377;51.734;8.950;2023-01-13T00:34:53;9.50;99.90
4727;DHT22;2377;51.734;8.950;2023-01-13T00:37:20;9.50;99.90
4727;DHT22;2377;51.734;8.950;2023-01-13T00:39:49;9.60;99.90
4727;DHT22;2377;51.734;8.950;2023-01-13T00:42:16;9.60;99.90
4727;DHT22;2377;51.734;8.950;2023-01-13T00:44:58;9.50;99.90
4727;DHT22;2377;51.734;8.950;2023-01-13T00:47:25;9.60;99.90
4727;DHT22;2377;51.734;8.950;2023-01-13T00:49:52;9.60;99.90
4727;DHT22;2377;51.734;8.950;2023-01-13T00:52:19;9.60;99.90
4727;DHT22;2377;51.734;8.950;2023-01-13T00:54:46;9.60;99.90
4727;DHT22;2377;51.734;8.950;2023-01-13T00:57:13;9.50;99.90
4727;DHT22;2377;51.734;8.950;2023-01-13T00:59:40;9.50;99.90
4727;DHT22;2377;51.734;8.950;2023-01-13T01:02:09;9.50;99.90
4727;DHT22;2377;51.734;8.950;2023-01-13T01:04:36;9.50;99.90
4727;DHT22;2377;51.734;8.950;2023-01-13T01:07:03;9.60;99.90
4727;DHT22;2377;51.734;8.950;2023-01-13T01:09:30;9.60;99.90
4727;DHT22;2377;51.734;8.950;2023-01-13T01:11:59;9.60;99.90
4727;DHT22;2377;51.734;8.950;2023-01-13T01:14:27;9.60;99.90
4727;DHT22;2377;51.734;8.950;2023-01-13T01:16:54;9.50;99.90
4727;DHT22;2377;51.734;8.950;2023-01-13T01:19:22;9.60;99.90
4727;DHT22;2377;51.734;8.950;2023-01-13T01:21:50;9.60;99.90
4727;DHT22;2377;51.734;8.950;2023-01-13T01:24:17;9.60;99.90
4727;DHT22;2377;51.734;8.950;2023-01-13T01:26:44;9.60;99.90
4727;DHT22;2377;51.734;8.950;2023-01-13T01:29:12;9.60;99.90
4727;DHT22;2377;51.734;8.950;2023-01-13T01:31:41;9.60;99.90
4727;DHT22;2377;51.734;8.950;2023-01-13T01:34:09;9.60;97.40
4727;DHT22;2377;51.734;8.950;2023-01-13T01:36:38;9.80;75.30
4727;DHT22;2377;51.734;8.950;2023-01-13T01:39:05;9.90;43.70
4727;DHT22;2377;51.734;8.950;2023-01-13T01:41:34;10.00;48.80
4727;DHT22;2377;51.734;8.950;2023-01-13T01:44:06;10.00;63.40
4727;DHT22;2377;51.734;8.950;2023-01-13T01:46:53;10.00;17.90
4727;DHT22;2377;51.734;8.950;2023-01-13T01:49:25;10.00;12.70
4727;DHT22;2377;51.734;8.950;2023-01-13T01:52:00;10.00;5.80
4727;DHT22;2377;51.734;8.950;2023-01-13T01:54:37;10.00;18.90
4727;DHT22;2377;51.734;8.950;2023-01-13T01:57:12;9.90;17.50
4727;DHT22;2377;51.734;8.950;2023-01-13T01:59:46;10.00;19.10
4727;DHT22;2377;51.734;8.950;2023-01-13T02:02:14;10.00;20.80
4727;DHT22;2377;51.734;8.950;2023-01-13T02:04:46;9.90;28.90
4727;DHT22;2377;51.734;8.950;2023-01-13T02:07:20;9.90;67.00
4727;DHT22;2377;51.734;8.950;2023-01-13T02:09:55;9.80;50.20
4727;DHT22;2377;51.734;8.950;2023-01-13T02:12:27;9.80;39.70
4727;DHT22;2377;51.734;8.950;2023-01-13T02:14:54;9.80;63.50
4727;DHT22;2377;51.734;8.950;2023-01-13T02:17:32;9.80;37.00
4727;DHT22;2377;51.734;8.950;2023-01-13T02:20:30;9.80;40.80
4727;DHT22;2377;51.734;8.950;2023-01-13T02:23:34;9.80;1.00
4727;DHT22;2377;51.734;8.950;2023-01-13T02:30:12;9.80;1.00
4727;DHT22;2377;51.734;8.950;2023-01-13T02:33:12;9.70;1.00
4727;DHT22;2377;51.734;8.950;2023-01-13T02:35:49;9.60;1.00
4727;DHT22;2377;51.734;8.950;2023-01-13T02:38:24;9.70;1.00
4727;DHT22;2377;51.734;8.950;2023-01-13T02:40:59;9.50;1.00
4727;DHT22;2377;51.734;8.950;2023-01-13T02:43:46;9.50;1.00
4727;DHT22;2377;51.734;8.950;2023-01-13T02:46:41;9.50;1.00
4727;DHT22;2377;51.734;8.950;2023-01-13T02:49:26;9.40;1.00
4727;DHT22;2377;51.734;8.950;2023-01-13T02:52:01;9.30;1.00
4727;DHT22;2377;51.734;8.950;2023-01-13T02:54:35;9.30;1.00
4727;DHT22;2377;51.734;8.950;2023-01-13T02:57:05;9.10;1.00
4727;DHT22;2377;51.734;8.950;2023-01-13T02:59:36;9.10;1.00
4727;DHT22;2377;51.734;8.950;2023-01-13T03:02:10;9.10;1.00
4727;DHT22;2377;51.734;8.950;2023-01-13T03:04:54;9.10;1.00
4727;DHT22;2377;51.734;8.950;2023-01-13T03:07:42;9.10;1.00
4727;DHT22;2377;51.734;8.950;2023-01-13T03:10:33;9.20;1.00
4727;DHT22;2377;51.734;8.950;2023-01-13T03:13:18;9.20;1.00
4727;DHT22;2377;51.734;8.950;2023-01-13T03:15:59;9.20;1.00
4727;DHT22;2377;51.734;8.950;2023-01-13T03:18:42;9.20;1.00
4727;DHT22;2377;51.734;8.950;2023-01-13T03:21:20;9.30;1.00
4727;DHT22;2377;51.734;8.950;2023-01-13T03:23:54;9.10;1.00
4727;DHT22;2377;51.734;8.950;2023-01-13T03:26:31;9.10;1.00
4727;DHT22;2377;51.734;8.950;2023-01-13T03:29:08;9.10;1.00
4727;DHT22;2377;51.734;8.950;2023-01-13T03:31:41;9.10;1.00
4727;DHT22;2377;51.734;8.950;2023-01-13T03:34:19;9.10;1.00
4727;DHT22;2377;51.734;8.950;2023-01-13T03:36:53;9.10;1.00
4727;DHT22;2377;51.734;8.950;2023-01-13T03:39:27;9.00;1.00
4727;DHT22;2377;51.734;8.950;2023-01-13T03:42:00;9.00;1.00
4727;DHT22;2377;51.734;8.950;2023-01-13T03:44:36;9.00;1.00
4727;DHT22;2377;51.734;8.950;2023-01-13T03:47:11;8.80;1.00
4727;DHT22;2377;51.734;8.950;2023-01-13T03:49:48;8.80;1.00
4727;DHT22;2377;51.734;8.950;2023-01-13T03:52:24;8.80;1.00
4727;DHT22;2377;51.734;8.950;2023-01-13T03:54:56;8.70;1.00
4727;DHT22;2377;51.734;8.950;2023-01-13T03:57:30;8.80;1.00
4727;DHT22;2377;51.734;8.950;2023-01-13T04:00:03;8.60;1.00
4727;DHT22;2377;51.734;8.950;2023-01-13T04:02:44;8.60;1.00
4727;DHT22;2377;51.734;8.950;2023-01-13T04:05:17;8.50;1.00
4727;DHT22;2377;51.734;8.950;2023-01-13T04:07:50;8.60;1.00
4727;DHT22;2377;51.734;8.950;2023-01-13T04:10:25;8.50;1.00
4727;DHT22;2377;51.734;8.950;2023-01-13T04:12:58;8.50;1.00
4727;DHT22;2377;51.734;8.950;2023-01-13T04:15:32;8.40;1.00
4727;DHT22;2377;51.734;8.950;2023-01-13T04:18:15;8.40;1.00
4727;DHT22;2377;51.734;8.950;2023-01-13T04:20:47;8.40;1.00
4727;DHT22;2377;51.734;8.950;2023-01-13T04:23:16;8.30;1.00
4727;DHT22;2377;51.734;8.950;2023-01-13T04:25:45;8.30;1.00
4727;DHT22;2377;51.734;8.950;2023-01-13T04:28:14;8.30;1.00
4727;DHT22;2377;51.734;8.950;2023-01-13T04:30:42;8.20;1.00
4727;DHT22;2377;51.734;8.950;2023-01-13T04:33:10;8.20;1.00
4727;DHT22;2377;51.734;8.950;2023-01-13T04:35:38;8.20;1.00
4727;DHT22;2377;51.734;8.950;2023-01-13T04:38:08;8.10;1.00
4727;DHT22;2377;51.734;8.950;2023-01-13T04:40:37;8.10;1.00
4727;DHT22;2377;51.734;8.950;2023-01-13T04:43:04;8.10;1.00
4727;DHT22;2377;51.734;8.950;2023-01-13T04:45:32;8.10;1.00
4727;DHT22;2377;51.734;8.950;2023-01-13T04:47:59;8.10;1.00
4727;DHT22;2377;51.734;8.950;2023-01-13T04:50:26;8.00;1.00
4727;DHT22;2377;51.734;8.950;2023-01-13T04:52:54;8.00;1.00
4727;DHT22;2377;51.734;8.950;2023-01-13T04:55:23;8.00;1.00
4727;DHT22;2377;51.734;8.950;2023-01-13T04:57:51;8.00;1.00
4727;DHT22;2377;51.734;8.950;2023-01-13T05:00:19;8.00;1.00
4727;DHT22;2377;51.734;8.950;2023-01-13T05:02:48;8.00;1.00
4727;DHT22;2377;51.734;8.950;2023-01-13T05:05:16;7.80;1.00
4727;DHT22;2377;51.734;8.950;2023-01-13T05:07:44;7.80;1.00
4727;DHT22;2377;51.734;8.950;2023-01-13T05:10:11;7.80;1.00
4727;DHT22;2377;51.734;8.950;2023-01-13T05:12:40;7.80;1.00
4727;DHT22;2377;51.734;8.950;2023-01-13T05:15:24;7.60;1.00
4727;DHT22;2377;51.734;8.950;2023-01-13T05:18:12;7.60;1.00
4727;DHT22;2377;51.734;8.950;2023-01-13T05:20:39;7.50;1.00
4727;DHT22;2377;51.734;8.950;2023-01-13T05:23:06;7.50;1.00
4727;DHT22;2377;51.734;8.950;2023-01-13T05:25:50;7.50;1.00
4727;DHT22;2377;51.734;8.950;2023-01-13T05:28:19;7.40;1.00
4727;DHT22;2377;51.734;8.950;2023-01-13T05:30:47;7.30;1.00
4727;DHT22;2377;51.734;8.950;2023-01-13T05:33:17;7.40;1.00
4727;DHT22;2377;51.734;8.950;2023-01-13T05:35:46;7.30;1.00
4727;DHT22;2377;51.734;8.950;2023-01-13T05:38:14;7.30;1.00
4727;DHT22;2377;51.734;8.950;2023-01-13T05:40:42;7.30;1.00
4727;DHT22;2377;51.734;8.950;2023-01-13T05:43:29;7.30;1.00
4727;DHT22;2377;51.734;8.950;2023-01-13T05:45:58;7.30;1.00
4727;DHT22;2377;51.734;8.950;2023-01-13T05:48:29;7.20;1.00
4727;DHT22;2377;51.734;8.950;2023-01-13T05:50:57;7.10;1.00
4727;DHT22;2377;51.734;8.950;2023-01-13T05:53:25;7.30;1.00
4727;DHT22;2377;51.734;8.950;2023-01-13T05:55:53;7.30;1.00
4727;DHT22;2377;51.734;8.950;2023-01-13T05:58:23;7.20;1.00
4727;DHT22;2377;51.734;8.950;2023-01-13T06:00:58;7.20;1.00
4727;DHT22;2377;51.734;8.950;2023-01-13T06:03:25;7.20;1.00
4727;DHT22;2377;51.734;8.950;2023-01-13T06:05:53;7.30;1.00
4727;DHT22;2377;51.734;8.950;2023-01-13T06:08:24;7.30;1.00
4727;DHT22;2377;51.734;8.950;2023-01-13T06:10:51;7.40;1.00
4727;DHT22;2377;51.734;8.950;2023-01-13T06:13:18;7.30;1.00
4727;DHT22;2377;51.734;8.950;2023-01-13T06:15:45;7.40;1.00
4727;DHT22;2377;51.734;8.950;2023-01-13T06:18:14;7.40;1.00
4727;DHT22;2377;51.734;8.950;2023-01-13T06:20:41;7.50;1.00
4727;DHT22;2377;51.734;8.950;2023-01-13T06:23:09;7.60;1.00
4727;DHT22;2377;51.734;8.950;2023-01-13T06:25:43;7.60;1.00
4727;DHT22;2377;51.734;8.950;2023-01-13T06:28:16;7.60;1.00
4727;DHT22;2377;51.734;8.950;2023-01-13T06:30:46;7.60;1.00
4727;DHT22;2377;51.734;8.950;2023-01-13T06:33:18;7.60;1.00
4727;DHT22;2377;51.734;8.950;2023-01-13T06:35:54;7.60;1.00
4727;DHT22;2377;51.734;8.950;2023-01-13T06:38:26;7.70;1.00
4727;DHT22;2377;51.734;8.950;2023-01-13T06:40:57;7.70;1.00
4727;DHT22;2377;51.734;8.950;2023-01-13T06:43:24;7.70;1.00
4727;DHT22;2377;51.734;8.950;2023-01-13T06:45:52;7.80;1.00
4727;DHT22;2377;51.734;8.950;2023-01-13T06:48:23;7.80;1.00
4727;DHT22;2377;51.734;8.950;2023-01-13T06:50:54;7.70;1.00
4727;DHT22;2377;51.734;8.950;2023-01-13T06:53:21;7.70;1.00
4727;DHT22;2377;51.734;8.950;2023-01-13T06:55:48;7.70;1.00
4727;DHT22;2377;51.734;8.950;2023-01-13T06:58:15;7.70;1.00
4727;DHT22;2377;51.734;8.950;2023-01-13T07:00:42;7.60;1.00
4727;DHT22;2377;51.734;8.950;2023-01-13T07:03:15;7.60;1.00
4727;DHT22;2377;51.734;8.950;2023-01-13T07:05:52;7.60;1.00
4727;DHT22;2377;51.734;8.950;2023-01-13T07:08:19;7.50;1.00
4727;DHT22;2377;51.734;8.950;2023-01-13T07:10:46;7.50;1.00
4727;DHT22;2377;51.734;8.950;2023-01-13T07:13:14;7.50;1.00
4727;DHT22;2377;51.734;8.950;2023-01-13T07:15:59;7.50;1.00
4727;DHT22;2377;51.734;8.950;2023-01-13T07:18:29;7.50;1.00
4727;DHT22;2377;51.734;8.950;2023-01-13T07:21:00;7.40;1.00
4727;DHT22;2377;51.734;8.950;2023-01-13T07:23:30;7.50;1.00
4727;DHT22;2377;51.734;8.950;2023-01-13T07:25:58;7.50;1.00
4727;DHT22;2377;51.734;8.950;2023-01-13T07:28:27;7.50;1.00
4727;DHT22;2377;51.734;8.950;2023-01-13T07:30:55;7.60;1.00
4727;DHT22;2377;51.734;8.950;2023-01-13T07:33:23;7.60;1.00
4727;DHT22;2377;51.734;8.950;2023-01-13T07:35:55;7.50;1.00
4727;DHT22;2377;51.734;8.950;2023-01-13T07:38:24;7.60;1.00
4727;DHT22;2377;51.734;8.950;2023-01-13T07:40:51;7.60;1.00
4727;DHT22;2377;51.734;8.950;2023-01-13T07:43:18;7.60;1.00
4727;DHT22;2377;51.734;8.950;2023-01-13T07:45:56;7.60;1.00
4727;DHT22;2377;51.734;8.950;2023-01-13T07:48:24;7.60;1.00
4727;DHT22;2377;51.734;8.950;2023-01-13T07:50:51;7.50;1.00
4727;DHT22;2377;51.734;8.950;2023-01-13T07:53:18;7.50;1.00
4727;DHT22;2377;51.734;8.950;2023-01-13T07:55:47;7.40;1.00
4727;DHT22;2377;51.734;8.950;2023-01-13T07:58:14;7.40;1.00
4727;DHT22;2377;51.734;8.950;2023-01-13T08:00:41;7.50;1.00
4727;DHT22;2377;51.734;8.950;2023-01-13T08:03:08;7.30;1.00
4727;DHT22;2377;51.734;8.950;2023-01-13T08:05:35;7.30;1.00
4727;DHT22;2377;51.734;8.950;2023-01-13T08:08:02;7.40;1.00
4727;DHT22;2377;51.734;8.950;2023-01-13T08:10:30;7.30;1.00
4727;DHT22;2377;51.734;8.950;2023-01-13T08:12:58;7.40;1.00
4727;DHT22;2377;51.734;8.950;2023-01-13T08:15:45;7.40;1.00
4727;DHT22;2377;51.734;8.950;2023-01-13T08:18:14;7.40;1.00
4727;DHT22;2377;51.734;8.950;2023-01-13T08:20:45;7.40;1.00
4727;DHT22;2377;51.734;8.950;2023-01-13T08:23:13;7.50;1.00
4727;DHT22;2377;51.734;8.950;2023-01-13T08:25:40;7.60;1.00
4727;DHT22;2377;51.734;8.950;2023-01-13T08:28:09;7.60;1.00
4727;DHT22;2377;51.734;8.950;2023-01-13T08:30:36;7.60;1.00
4727;DHT22;2377;51.734;8.950;2023-01-13T08:33:05;7.60;1.00
4727;DHT22;2377;51.734;8.950;2023-01-13T08:35:34;7.60;1.00
4727;DHT22;2377;51.734;8.950;2023-01-13T08:38:01;7.70;1.00
4727;DHT22;2377;51.734;8.950;2023-01-13T08:40:28;7.60;1.00
4727;DHT22;2377;51.734;8.950;2023-01-13T08:42:56;7.60;1.00
4727;DHT22;2377;51.734;8.950;2023-01-13T08:45:25;7.70;1.00
4727;DHT22;2377;51.734;8.950;2023-01-13T08:47:52;7.70;1.00
4727;DHT22;2377;51.734;8.950;2023-01-13T08:50:19;7.80;1.00
4727;DHT22;2377;51.734;8.950;2023-01-13T08:52:46;7.70;1.00
4727;DHT22;2377;51.734;8.950;2023-01-13T08:55:13;7.70;1.00
4727;DHT22;2377;51.734;8.950;2023-01-13T08:57:40;7.70;1.00
4727;DHT22;2377;51.734;8.950;2023-01-13T09:00:09;7.60;1.00
4727;DHT22;2377;51.734;8.950;2023-01-13T09:02:39;7.70;1.00
4727;DHT22;2377;51.734;8.950;2023-01-13T09:05:06;7.80;1.00
4727;DHT22;2377;51.734;8.950;2023-01-13T09:07:35;7.70;1.00
4727;DHT22;2377;51.734;8.950;2023-01-13T09:10:04;7.70;1.00
4727;DHT22;2377;51.734;8.950;2023-01-13T09:12:32;7.70;1.00
4727;DHT22;2377;51.734;8.950;2023-01-13T09:15:17;7.80;1.00
4727;DHT22;2377;51.734;8.950;2023-01-13T09:17:46;7.80;1.00
4727;DHT22;2377;51.734;8.950;2023-01-13T09:20:13;7.80;1.00
4727;DHT22;2377;51.734;8.950;2023-01-13T09:22:40;7.80;1.00
4727;DHT22;2377;51.734;8.950;2023-01-13T09:25:08;7.90;1.00
4727;DHT22;2377;51.734;8.950;2023-01-13T09:27:37;7.80;1.00
4727;DHT22;2377;51.734;8.950;2023-01-13T09:30:05;7.80;1.00
4727;DHT22;2377;51.734;8.950;2023-01-13T09:32:33;7.90;1.00
4727;DHT22;2377;51.734;8.950;2023-01-13T09:35:04;7.90;1.00
4727;DHT22;2377;51.734;8.950;2023-01-13T09:37:32;7.90;1.00
4727;DHT22;2377;51.734;8.950;2023-01-13T09:40:01;7.80;1.00
4727;DHT22;2377;51.734;8.950;2023-01-13T09:42:40;7.80;1.00
4727;DHT22;2377;51.734;8.950;2023-01-13T09:45:32;7.80;1.00
4727;DHT22;2377;51.734;8.950;2023-01-13T09:48:07;7.80;1.00
4727;DHT22;2377;51.734;8.950;2023-01-13T09:50:52;7.90;1.00
4727;DHT22;2377;51.734;8.950;2023-01-13T09:53:28;8.00;1.00
4727;DHT22;2377;51.734;8.950;2023-01-13T09:55:57;7.90;1.00
4727;DHT22;2377;51.734;8.950;2023-01-13T09:58:28;7.90;1.00
4727;DHT22;2377;51.734;8.950;2023-01-13T10:01:05;8.00;1.00
4727;DHT22;2377;51.734;8.950;2023-01-13T10:03:42;7.90;1.00
4727;DHT22;2377;51.734;8.950;2023-01-13T10:06:14;8.00;1.00
4727;DHT22;2377;51.734;8.950;2023-01-13T10:08:47;7.80;1.00
4727;DHT22;2377;51.734;8.950;2023-01-13T10:11:17;7.80;1.00
4727;DHT22;2377;51.734;8.950;2023-01-13T10:14:11;7.90;1.00
4727;DHT22;2377;51.734;8.950;2023-01-13T10:16:46;7.80;1.00
4727;DHT22;2377;51.734;8.950;2023-01-13T10:19:21;7.80;1.00
4727;DHT22;2377;51.734;8.950;2023-01-13T10:22:16;7.80;1.00
4727;DHT22;2377;51.734;8.950;2023-01-13T10:25:16;7.80;1.00
4727;DHT22;2377;51.734;8.950;2023-01-13T10:27:52;7.80;1.00
4727;DHT22;2377;51.734;8.950;2023-01-13T10:30:22;8.00;1.00
4727;DHT22;2377;51.734;8.950;2023-01-13T10:32:57;8.00;1.00
4727;DHT22;2377;51.734;8.950;2023-01-13T10:35:51;8.00;1.00
4727;DHT22;2377;51.734;8.950;2023-01-13T10:38:24;8.00;1.00
4727;DHT22;2377;51.734;8.950;2023-01-13T10:40:53;8.10;1.00
4727;DHT22;2377;51.734;8.950;2023-01-13T10:43:23;8.10;1.00
4727;DHT22;2377;51.734;8.950;2023-01-13T10:45:57;8.10;1.00
4727;DHT22;2377;51.734;8.950;2023-01-13T10:48:35;8.00;1.00
4727;DHT22;2377;51.734;8.950;2023-01-13T10:51:19;8.10;1.00
4727;DHT22;2377;51.734;8.950;2023-01-13T10:53:55;8.00;1.00
4727;DHT22;2377;51.734;8.950;2023-01-13T10:56:27;8.00;1.00
4727;DHT22;2377;51.734;8.950;2023-01-13T10:59:13;8.00;1.00
4727;DHT22;2377;51.734;8.950;2023-01-13T11:01:54;8.00;1.00
4727;DHT22;2377;51.734;8.950;2023-01-13T11:04:30;8.00;1.00
4727;DHT22;2377;51.734;8.950;2023-01-13T11:07:02;7.90;1.00
4727;DHT22;2377;51.734;8.950;2023-01-13T11:09:32;8.00;1.00
4727;DHT22;2377;51.734;8.950;2023-01-13T11:11:59;7.90;1.00
4727;DHT22;2377;51.734;8.950;2023-01-13T11:14:33;8.00;1.00
4727;DHT22;2377;51.734;8.950;2023-01-13T11:17:27;8.00;1.00
4727;DHT22;2377;51.734;8.950;2023-01-13T11:20:03;8.00;1.00
4727;DHT22;2377;51.734;8.950;2023-01-13T11:22:43;8.10;1.00
4727;DHT22;2377;51.734;8.950;2023-01-13T11:25:17;8.10;1.00
4727;DHT22;2377;51.734;8.950;2023-01-13T11:27:54;8.00;1.00
4727;DHT22;2377;51.734;8.950;2023-01-13T11:30:30;8.00;1.00
4727;DHT22;2377;51.734;8.950;2023-01-13T11:33:25;8.00;1.00
4727;DHT22;2377;51.734;8.950;2023-01-13T11:36:05;8.10;1.00
4727;DHT22;2377;51.734;8.950;2023-01-13T11:38:45;8.10;1.00
4727;DHT22;2377;51.734;8.950;2023-01-13T11:41:24;8.10;1.00
4727;DHT22;2377;51.734;8.950;2023-01-13T11:44:02;8.10;1.00
4727;DHT22;2377;51.734;8.950;2023-01-13T11:46:39;8.10;1.00
4727;DHT22;2377;51.734;8.950;2023-01-13T11:49:11;8.20;1.00
4727;DHT22;2377;51.734;8.950;2023-01-13T11:51:53;8.10;1.00
4727;DHT22;2377;51.734;8.950;2023-01-13T11:54:45;8.10;1.00
4727;DHT22;2377;51.734;8.950;2023-01-13T11:57:45;8.10;1.00
4727;DHT22;2377;51.734;8.950;2023-01-13T12:00:29;8.10;1.00
4727;DHT22;2377;51.734;8.950;2023-01-13T12:03:21;8.00;1.00
4727;DHT22;2377;51.734;8.950;2023-01-13T12:06:02;8.10;1.00
4727;DHT22;2377;51.734;8.950;2023-01-13T12:09:02;8.10;1.00
4727;DHT22;2377;51.734;8.950;2023-01-13T12:11:46;8.10;1.00
4727;DHT22;2377;51.734;8.950;2023-01-13T12:14:58;8.10;1.00
4727;DHT22;2377;51.734;8.950;2023-01-13T12:17:49;8.00;1.00
4727;DHT22;2377;51.734;8.950;2023-01-13T12:20:29;8.10;1.00
4727;DHT22;2377;51.734;8.950;2023-01-13T12:23:06;8.10;1.00
4727;DHT22;2377;51.734;8.950;2023-01-13T12:25:45;8.10;1.00
4727;DHT22;2377;51.734;8.950;2023-01-13T12:28:23;8.10;1.00
4727;DHT22;2377;51.734;8.950;2023-01-13T12:30:59;8.10;1.00
4727;DHT22;2377;51.734;8.950;2023-01-13T12:33:39;8.20;1.00
4727;DHT22;2377;51.734;8.950;2023-01-13T12:36:16;8.10;1.00
4727;DHT22;2377;51.734;8.950;2023-01-13T12:38:55;8.10;1.00
4727;DHT22;2377;51.734;8.950;2023-01-13T12:41:32;8.10;1.00
4727;DHT22;2377;51.734;8.950;2023-01-13T12:44:27;8.20;99.90
4727;DHT22;2377;51.734;8.950;2023-01-13T12:46:55;8.20;99.90
4727;DHT22;2377;51.734;8.950;2023-01-13T12:49:28;8.30;99.90
4727;DHT22;2377;51.734;8.950;2023-01-13T12:52:17;8.30;99.90
4727;DHT22;2377;51.734;8.950;2023-01-13T12:55:15;8.30;99.90
4727;DHT22;2377;51.734;8.950;2023-01-13T12:58:07;8.20;99.90
4727;DHT22;2377;51.734;8.950;2023-01-13T13:00:59;8.30;99.90
4727;DHT22;2377;51.734;8.950;2023-01-13T13:03:37;8.40;99.90
4727;DHT22;2377;51.734;8.950;2023-01-13T13:06:22;8.40;1.00
4727;DHT22;2377;51.734;8.950;2023-01-13T13:09:03;8.30;1.00
4727;DHT22;2377;51.734;8.950;2023-01-13T13:11:37;8.30;1.00
4727;DHT22;2377;51.734;8.950;2023-01-13T13:14:58;8.30;1.00
4727;DHT22;2377;51.734;8.950;2023-01-13T13:17:45;8.20;1.00
4727;DHT22;2377;51.734;8.950;2023-01-13T13:20:54;8.30;1.00
4727;DHT22;2377;51.734;8.950;2023-01-13T13:23:28;8.20;1.00
4727;DHT22;2377;51.734;8.950;2023-01-13T13:29:15;8.00;1.00
4727;DHT22;2377;51.734;8.950;2023-01-13T13:35:34;7.80;1.00
4727;DHT22;2377;51.734;8.950;2023-01-13T13:38:20;7.70;1.00
4727;DHT22;2377;51.734;8.950;2023-01-13T13:41:23;7.60;1.00
4727;DHT22;2377;51.734;8.950;2023-01-13T13:44:14;7.50;1.00
4727;DHT22;2377;51.734;8.950;2023-01-13T13:47:05;7.50;1.00
4727;DHT22;2377;51.734;8.950;2023-01-13T13:49:38;7.50;1.00
4727;DHT22;2377;51.734;8.950;2023-01-13T13:52:11;7.50;1.00
4727;DHT22;2377;51.734;8.950;2023-01-13T13:54:47;7.60;1.00
4727;DHT22;2377;51.734;8.950;2023-01-13T13:57:18;7.50;1.00
4727;DHT22;2377;51.734;8.950;2023-01-13T13:59:51;7.50;1.00
4727;DHT22;2377;51.734;8.950;2023-01-13T14:02:24;7.30;1.00
4727;DHT22;2377;51.734;8.950;2023-01-13T14:05:07;7.20;1.00
4727;DHT22;2377;51.734;8.950;2023-01-13T14:07:44;7.20;1.00
4727;DHT22;2377;51.734;8.950;2023-01-13T14:10:19;7.20;1.00
4727;DHT22;2377;51.734;8.950;2023-01-13T14:12:50;7.10;1.00
4727;DHT22;2377;51.734;8.950;2023-01-13T14:15:32;7.10;1.00
4727;DHT22;2377;51.734;8.950;2023-01-13T14:18:02;7.10;1.00
4727;DHT22;2377;51.734;8.950;2023-01-13T14:20:31;7.10;1.00
4727;DHT22;2377;51.734;8.950;2023-01-13T14:23:00;7.20;1.00
4727;DHT22;2377;51.734;8.950;2023-01-13T14:25:33;7.20;1.00
4727;DHT22;2377;51.734;8.950;2023-01-13T14:28:21;7.10;1.00
4727;DHT22;2377;51.734;8.950;2023-01-13T14:30:52;7.10;1.00
4727;DHT22;2377;51.734;8.950;2023-01-13T14:33:23;7.10;1.00
4727;DHT22;2377;51.734;8.950;2023-01-13T14:36:17;7.10;1.00
4727;DHT22;2377;51.734;8.950;2023-01-13T14:38:46;7.20;1.00
4727;DHT22;2377;51.734;8.950;2023-01-13T14:41:24;7.10;1.00
4727;DHT22;2377;51.734;8.950;2023-01-13T14:43:56;7.10;1.00
4727;DHT22;2377;51.734;8.950;2023-01-13T14:46:27;7.10;1.00
4727;DHT22;2377;51.734;8.950;2023-01-13T14:49:03;7.20;1.00
4727;DHT22;2377;51.734;8.950;2023-01-13T14:51:30;7.10;1.00
4727;DHT22;2377;51.734;8.950;2023-01-13T14:53:57;7.10;1.00
4727;DHT22;2377;51.734;8.950;2023-01-13T14:56:40;7.20;1.00
4727;DHT22;2377;51.734;8.950;2023-01-13T14:59:34;7.20;1.00
4727;DHT22;2377;51.734;8.950;2023-01-13T15:02:37;7.30;1.00
4727;DHT22;2377;51.734;8.950;2023-01-13T15:05:31;7.20;1.00
4727;DHT22;2377;51.734;8.950;2023-01-13T15:08:31;7.30;1.00
4727;DHT22;2377;51.734;8.950;2023-01-13T15:11:03;7.20;1.00
4727;DHT22;2377;51.734;8.950;2023-01-13T15:13:39;7.00;1.00
4727;DHT22;2377;51.734;8.950;2023-01-13T15:16:15;7.00;1.00
4727;DHT22;2377;51.734;8.950;2023-01-13T15:18:44;6.80;1.00
4727;DHT22;2377;51.734;8.950;2023-01-13T15:21:11;6.80;1.00
4727;DHT22;2377;51.734;8.950;2023-01-13T15:23:40;6.60;1.00
4727;DHT22;2377;51.734;8.950;2023-01-13T15:26:20;6.50;10.90
4727;DHT22;2377;51.734;8.950;2023-01-13T15:28:51;6.30;9.90
4727;DHT22;2377;51.734;8.950;2023-01-13T15:31:20;6.30;14.60
4727;DHT22;2377;51.734;8.950;2023-01-13T15:33:47;6.30;21.30
4727;DHT22;2377;51.734;8.950;2023-01-13T15:36:25;6.30;31.20
4727;DHT22;2377;51.734;8.950;2023-01-13T15:38:54;6.20;16.30
4727;DHT22;2377;51.734;8.950;2023-01-13T15:41:21;6.30;9.50
4727;DHT22;2377;51.734;8.950;2023-01-13T15:44:05;6.40;16.20
4727;DHT22;2377;51.734;8.950;2023-01-13T15:46:50;6.30;11.50
4727;DHT22;2377;51.734;8.950;2023-01-13T15:49:24;6.40;9.80
4727;DHT22;2377;51.734;8.950;2023-01-13T15:51:59;6.50;20.40
4727;DHT22;2377;51.734;8.950;2023-01-13T15:54:26;6.40;24.50
4727;DHT22;2377;51.734;8.950;2023-01-13T15:56:53;6.50;16.30
4727;DHT22;2377;51.734;8.950;2023-01-13T15:59:24;6.50;35.20
4727;DHT22;2377;51.734;8.950;2023-01-13T16:01:52;6.50;34.70
4727;DHT22;2377;51.734;8.950;2023-01-13T16:04:19;6.50;26.30
4727;DHT22;2377;51.734;8.950;2023-01-13T16:06:46;6.50;18.90
4727;DHT22;2377;51.734;8.950;2023-01-13T16:09:14;6.60;33.20
4727;DHT22;2377;51.734;8.950;2023-01-13T16:11:41;6.60;24.60
4727;DHT22;2377;51.734;8.950;2023-01-13T16:14:08;6.50;25.00
4727;DHT22;2377;51.734;8.950;2023-01-13T16:16:36;6.60;29.40
4727;DHT22;2377;51.734;8.950;2023-01-13T16:19:03;6.60;15.30
4727;DHT22;2377;51.734;8.950;2023-01-13T16:21:30;6.60;25.10
4727;DHT22;2377;51.734;8.950;2023-01-13T16:23:57;6.60;12.90
4727;DHT22;2377;51.734;8.950;2023-01-13T16:27:10;6.60;15.00
4727;DHT22;2377;51.734;8.950;2023-01-13T16:29:35;6.70;10.10
4727;DHT22;2377;51.734;8.950;2023-01-13T16:32:04;6.70;11.40
4727;DHT22;2377;51.734;8.950;2023-01-13T16:34:31;6.70;6.10
4727;DHT22;2377;51.734;8.950;2023-01-13T16:36:58;6.70;4.20
4727;DHT22;2377;51.734;8.950;2023-01-13T16:39:25;6.80;1.00
4727;DHT22;2377;51.734;8.950;2023-01-13T16:41:52;6.70;1.00
4727;DHT22;2377;51.734;8.950;2023-01-13T16:44:19;6.70;1.00
4727;DHT22;2377;51.734;8.950;2023-01-13T16:46:46;6.70;1.00
4727;DHT22;2377;51.734;8.950;2023-01-13T16:49:15;6.70;1.00
4727;DHT22;2377;51.734;8.950;2023-01-13T16:51:42;6.70;1.00
4727;DHT22;2377;51.734;8.950;2023-01-13T16:54:10;6.60;1.00
4727;DHT22;2377;51.734;8.950;2023-01-13T16:56:37;6.60;10.10
4727;DHT22;2377;51.734;8.950;2023-01-13T16:59:06;6.50;6.20
4727;DHT22;2377;51.734;8.950;2023-01-13T17:01:37;6.60;1.00
4727;DHT22;2377;51.734;8.950;2023-01-13T17:04:06;6.60;1.00
4727;DHT22;2377;51.734;8.950;2023-01-13T17:06:45;6.60;8.90
4727;DHT22;2377;51.734;8.950;2023-01-13T17:09:18;6.50;1.00
4727;DHT22;2377;51.734;8.950;2023-01-13T17:11:47;6.50;7.30
4727;DHT22;2377;51.734;8.950;2023-01-13T17:14:15;6.50;15.80
4727;DHT22;2377;51.734;8.950;2023-01-13T17:16:43;6.50;7.10
4727;DHT22;2377;51.734;8.950;2023-01-13T17:19:10;6.50;4.30
4727;DHT22;2377;51.734;8.950;2023-01-13T17:21:37;6.50;1.00
4727;DHT22;2377;51.734;8.950;2023-01-13T17:24:06;6.50;1.00